createdAt,value
2023-03-17T00:01:38.490Z,77.40
2023-03-17T00:04:05.866Z,77.00
2023-03-17T00:06:34.017Z,77.10
2023-03-17T00:09:01.319Z,77.20
2023-03-17T00:11:28.315Z,77.40
2023-03-17T00:13:54.956Z,77.80
2023-03-17T00:16:25.844Z,77.80
2023-03-17T00:18:53.767Z,77.80
2023-03-17T00:21:24.787Z,77.90
2023-03-17T00:23:51.990Z,77.90
2023-03-17T00:26:19.611Z,77.70
2023-03-17T00:28:46.622Z,77.90
2023-03-17T00:31:15.336Z,77.90
2023-03-17T00:33:43.380Z,77.90
2023-03-17T00:36:12.845Z,77.80
2023-03-17T00:38:39.644Z,78.00
2023-03-17T00:41:06.485Z,78.50
2023-03-17T00:43:33.444Z,78.10
2023-03-17T00:46:00.245Z,78.40
2023-03-17T00:48:28.526Z,78.30
2023-03-17T00:50:56.053Z,78.10
2023-03-17T00:53:22.683Z,78.50
2023-03-17T00:55:49.958Z,78.30
2023-03-17T00:58:20.292Z,77.90
2023-03-17T01:00:47.430Z,78.00
2023-03-17T01:03:14.574Z,78.10
2023-03-17T01:05:41.725Z,78.20
2023-03-17T01:08:09.132Z,78.40
2023-03-17T01:10:37.234Z,78.10
2023-03-17T01:13:04.357Z,78.20
2023-03-17T01:15:31.675Z,78.30
2023-03-17T01:17:59.480Z,78.50
2023-03-17T01:20:28.369Z,78.80
2023-03-17T01:22:55.273Z,79.20
2023-03-17T01:25:22.322Z,78.90
2023-03-17T01:27:49.276Z,78.90
2023-03-17T01:30:29.619Z,78.90
2023-03-17T01:32:57.120Z,79.30
2023-03-17T01:35:24.641Z,79.60
2023-03-17T01:37:51.351Z,79.70
2023-03-17T01:40:22.786Z,80.40
2023-03-17T01:42:52.588Z,80.10
2023-03-17T01:45:38.636Z,80.10
2023-03-17T01:48:05.780Z,79.70
2023-03-17T01:50:32.570Z,79.50
2023-03-17T01:52:59.428Z,79.60
2023-03-17T01:55:26.361Z,79.90
2023-03-17T01:57:54.417Z,79.60
2023-03-17T02:00:24.388Z,79.90
2023-03-17T02:02:52.261Z,79.80
2023-03-17T02:05:21.513Z,80.00
2023-03-17T02:07:48.592Z,80.50
2023-03-17T02:10:17.528Z,80.20
2023-03-17T02:12:45.911Z,80.40
2023-03-17T02:15:12.805Z,80.60
2023-03-17T02:17:39.620Z,80.90
2023-03-17T02:20:15.608Z,80.80
2023-03-17T02:22:43.695Z,80.90
2023-03-17T02:25:10.441Z,80.80
2023-03-17T02:27:41.815Z,81.10
2023-03-17T02:30:14.531Z,81.60
2023-03-17T02:32:41.203Z,81.70
2023-03-17T02:35:08.781Z,81.70
2023-03-17T02:37:35.886Z,81.40
2023-03-17T02:40:02.878Z,81.50
2023-03-17T02:42:29.668Z,81.50
2023-03-17T02:44:56.312Z,81.00
2023-03-17T02:47:24.381Z,81.50
2023-03-17T02:49:53.400Z,81.40
2023-03-17T02:52:20.309Z,81.10
2023-03-17T02:54:46.927Z,80.70
2023-03-17T02:57:13.596Z,80.90
2023-03-17T02:59:40.352Z,80.80
2023-03-17T03:02:07.305Z,80.60
2023-03-17T03:04:34.197Z,80.30
2023-03-17T03:07:00.826Z,80.40
2023-03-17T03:09:27.696Z,80.60
2023-03-17T03:11:54.282Z,80.40
2023-03-17T03:14:21.141Z,80.70
2023-03-17T03:16:48.061Z,80.70
2023-03-17T03:19:14.720Z,81.00
2023-03-17T03:21:42.268Z,80.90
2023-03-17T03:24:09.309Z,81.10
2023-03-17T03:26:36.124Z,81.20
2023-03-17T03:29:03.658Z,81.10
2023-03-17T03:31:30.789Z,80.90
2023-03-17T03:33:59.779Z,80.80
2023-03-17T03:36:27.229Z,80.70
2023-03-17T03:38:53.913Z,81.00
2023-03-17T03:41:20.840Z,81.20
2023-03-17T03:43:47.470Z,81.30
2023-03-17T03:46:15.924Z,82.00
2023-03-17T03:48:42.803Z,82.00
2023-03-17T03:51:09.588Z,82.00
2023-03-17T03:53:36.477Z,82.00
2023-03-17T03:56:03.214Z,82.00
2023-03-17T03:58:31.460Z,81.80
2023-03-17T04:00:58.159Z,82.00
2023-03-17T04:03:25.056Z,81.90
2023-03-17T04:05:51.693Z,82.40
2023-03-17T04:08:18.338Z,82.20
2023-03-17T04:10:45.005Z,82.90
2023-03-17T04:13:13.078Z,82.80
2023-03-17T04:15:39.842Z,83.40
2023-03-17T04:18:06.805Z,83.00
2023-03-17T04:20:33.651Z,82.90
2023-03-17T04:23:01.732Z,82.80
2023-03-17T04:25:28.331Z,82.80
2023-03-17T04:27:54.995Z,82.80
2023-03-17T04:30:22.219Z,82.80
2023-03-17T04:32:49.266Z,82.40
2023-03-17T04:35:17.688Z,82.40
2023-03-17T04:37:44.761Z,82.60
2023-03-17T04:40:13.498Z,83.00
2023-03-17T04:42:43.026Z,83.00
2023-03-17T04:45:11.330Z,82.50
2023-03-17T04:47:38.777Z,82.40
2023-03-17T04:50:05.989Z,82.50
2023-03-17T04:52:32.820Z,82.20
2023-03-17T04:54:59.456Z,82.60
2023-03-17T04:57:28.824Z,82.30
2023-03-17T04:59:55.746Z,82.40
2023-03-17T05:02:24.127Z,82.40
2023-03-17T05:04:51.100Z,82.20
2023-03-17T05:07:17.900Z,82.20
2023-03-17T05:09:44.664Z,82.30
2023-03-17T05:12:11.670Z,82.70
2023-03-17T05:14:38.610Z,82.20
2023-03-17T05:17:05.347Z,82.60
2023-03-17T05:19:32.154Z,82.50
2023-03-17T05:21:58.802Z,82.30
2023-03-17T05:24:25.784Z,82.30
2023-03-17T05:26:52.393Z,82.50
2023-03-17T05:29:19.417Z,82.40
2023-03-17T05:31:46.078Z,82.80
2023-03-17T05:34:13.246Z,82.60
2023-03-17T05:36:40.913Z,82.60
2023-03-17T05:39:09.293Z,83.20
2023-03-17T05:41:36.284Z,83.10
2023-03-17T05:44:03.004Z,82.80
2023-03-17T05:46:32.701Z,82.30
2023-03-17T05:49:06.510Z,82.50
2023-03-17T05:51:36.824Z,82.80
2023-03-17T05:54:03.652Z,82.40
2023-03-17T05:56:35.520Z,82.30
2023-03-17T05:59:02.712Z,82.50
2023-03-17T06:01:29.329Z,82.20
2023-03-17T06:03:56.418Z,82.30
2023-03-17T06:06:24.504Z,82.60
2023-03-17T06:08:54.422Z,82.60
2023-03-17T06:11:21.617Z,82.60
2023-03-17T06:13:48.640Z,82.50
2023-03-17T06:16:16.545Z,82.10
2023-03-17T06:18:43.471Z,81.60
2023-03-17T06:21:10.480Z,81.10
2023-03-17T06:23:37.261Z,79.80
2023-03-17T06:26:05.766Z,79.30
2023-03-17T06:28:32.712Z,78.90
2023-03-17T06:30:59.528Z,78.30
2023-03-17T06:33:26.265Z,78.00
2023-03-17T06:35:57.244Z,77.70
2023-03-17T06:38:24.664Z,76.80
2023-03-17T06:40:51.621Z,75.60
2023-03-17T06:43:21.887Z,74.30
2023-03-17T06:45:51.945Z,73.90
2023-03-17T06:48:18.841Z,74.00
2023-03-17T06:50:47.392Z,73.70
2023-03-17T06:53:14.256Z,73.00
2023-03-17T06:55:44.112Z,73.10
2023-03-17T06:58:10.762Z,72.80
2023-03-17T07:00:40.609Z,72.70
2023-03-17T07:03:07.904Z,71.40
2023-03-17T07:05:34.633Z,70.80
2023-03-17T07:08:01.278Z,70.40
2023-03-17T07:10:28.142Z,70.40
2023-03-17T07:12:55.077Z,70.40
2023-03-17T07:15:22.074Z,69.90
2023-03-17T07:17:48.790Z,69.70
2023-03-17T07:20:18.046Z,69.80
2023-03-17T07:22:44.684Z,69.80
2023-03-17T07:25:11.481Z,70.30
2023-03-17T07:27:38.373Z,70.10
2023-03-17T07:30:05.586Z,69.50
2023-03-17T07:32:32.553Z,69.40
2023-03-17T07:34:59.404Z,68.30
2023-03-17T07:37:26.039Z,67.20
2023-03-17T07:39:52.955Z,66.40
2023-03-17T07:42:19.968Z,65.90
2023-03-17T07:44:46.822Z,65.70
2023-03-17T07:47:13.589Z,65.50
2023-03-17T07:49:42.249Z,65.70
2023-03-17T07:52:10.157Z,64.60
2023-03-17T07:54:37.564Z,64.00
2023-03-17T07:57:04.993Z,63.30
2023-03-17T07:59:32.011Z,63.30
2023-03-17T08:02:00.408Z,62.70
2023-03-17T08:04:27.711Z,61.20
2023-03-17T08:06:54.937Z,60.90
2023-03-17T08:09:24.582Z,61.60
2023-03-17T08:11:51.631Z,60.30
2023-03-17T08:14:18.400Z,59.10
2023-03-17T08:16:45.196Z,59.90
2023-03-17T08:19:13.695Z,61.20
2023-03-17T08:21:40.708Z,61.80
2023-03-17T08:24:07.452Z,60.70
2023-03-17T08:26:34.399Z,57.40
2023-03-17T08:29:01.598Z,57.90
2023-03-17T08:31:28.798Z,59.10
2023-03-17T08:33:57.393Z,58.70
2023-03-17T08:36:24.257Z,57.00
2023-03-17T08:38:51.282Z,57.20
2023-03-17T08:41:22.544Z,56.80
2023-03-17T08:43:50.641Z,56.20
2023-03-17T08:46:21.947Z,56.30
2023-03-17T08:48:49.651Z,56.60
2023-03-17T08:51:18.694Z,55.80
2023-03-17T08:53:47.745Z,55.50
2023-03-17T08:56:14.962Z,55.60
2023-03-17T08:58:43.488Z,54.60
2023-03-17T09:01:11.921Z,53.50
2023-03-17T09:03:39.519Z,55.10
2023-03-17T09:06:08.414Z,56.30
2023-03-17T09:08:37.590Z,54.40
2023-03-17T09:11:05.539Z,54.00
2023-03-17T09:13:34.587Z,52.80
2023-03-17T09:16:04.142Z,54.00
2023-03-17T09:18:32.964Z,52.90
2023-03-17T09:21:00.006Z,52.50
2023-03-17T09:23:26.796Z,52.00
2023-03-17T09:25:53.689Z,51.30
2023-03-17T09:28:20.259Z,51.80
2023-03-17T09:30:48.411Z,51.10
2023-03-17T09:33:15.711Z,51.80
2023-03-17T09:35:42.631Z,51.40
2023-03-17T09:38:09.328Z,51.30
2023-03-17T09:40:37.535Z,51.10
2023-03-17T09:43:22.622Z,50.70
2023-03-17T09:45:49.249Z,50.50
2023-03-17T09:48:36.889Z,51.20
2023-03-17T09:51:08.940Z,51.70
2023-03-17T09:53:50.031Z,49.60
2023-03-17T09:56:18.733Z,50.00
2023-03-17T09:58:59.702Z,51.00
2023-03-17T10:01:26.817Z,48.80
2023-03-17T10:03:53.587Z,50.20
2023-03-17T10:06:39.635Z,49.30
2023-03-17T10:09:27.865Z,49.10
2023-03-17T10:12:01.226Z,48.60
2023-03-17T10:14:46.141Z,48.60
2023-03-17T10:17:12.955Z,50.50
2023-03-17T10:20:00.568Z,47.30
2023-03-17T10:22:46.419Z,46.90
2023-03-17T10:25:15.005Z,47.70
2023-03-17T10:27:42.591Z,46.80
2023-03-17T10:30:19.689Z,46.90
2023-03-17T10:32:46.727Z,46.90
2023-03-17T10:35:15.485Z,45.40
2023-03-17T10:37:43.988Z,45.70
2023-03-17T10:40:28.524Z,46.10
2023-03-17T10:43:00.311Z,46.10
2023-03-17T10:45:32.418Z,45.80
2023-03-17T10:48:00.090Z,45.20
2023-03-17T10:50:28.694Z,45.30
2023-03-17T10:53:00.651Z,45.00
2023-03-17T10:55:33.866Z,44.20
2023-03-17T10:58:02.660Z,43.40
2023-03-17T11:00:33.765Z,44.20
2023-03-17T11:03:03.520Z,44.10
2023-03-17T11:05:30.164Z,42.00
2023-03-17T11:07:57.887Z,43.30
2023-03-17T11:10:26.260Z,42.90
2023-03-17T11:12:59.201Z,43.10
2023-03-17T11:15:29.486Z,43.20
2023-03-17T11:17:58.452Z,41.90
2023-03-17T11:20:25.603Z,42.60
2023-03-17T11:22:56.448Z,40.90
2023-03-17T11:25:27.566Z,40.70
2023-03-17T11:28:07.317Z,40.40
2023-03-17T11:30:36.733Z,41.50
2023-03-17T11:33:22.371Z,41.70
2023-03-17T11:35:48.999Z,41.30
2023-03-17T11:38:18.682Z,41.50
2023-03-17T11:41:04.845Z,41.20
2023-03-17T11:43:35.863Z,40.00
2023-03-17T11:46:21.518Z,40.80
2023-03-17T11:48:56.463Z,42.00
2023-03-17T11:51:30.365Z,39.10
2023-03-17T11:54:06.858Z,38.50
2023-03-17T11:56:45.513Z,38.90
2023-03-17T11:59:25.808Z,40.70
2023-03-17T12:02:02.865Z,38.30
2023-03-17T12:04:34.366Z,40.50
2023-03-17T12:07:08.706Z,40.20
2023-03-17T12:09:42.172Z,40.20
2023-03-17T12:12:10.739Z,39.90
2023-03-17T12:14:41.355Z,38.10
2023-03-17T12:17:19.897Z,39.00
2023-03-17T12:19:52.478Z,39.90
2023-03-17T12:22:26.825Z,40.00
2023-03-17T12:25:05.320Z,40.50
2023-03-17T12:27:34.554Z,39.60
2023-03-17T12:30:15.530Z,38.90
2023-03-17T12:32:47.472Z,39.30
2023-03-17T12:35:26.361Z,39.50
2023-03-17T12:37:54.362Z,40.20
2023-03-17T12:40:33.604Z,38.30
2023-03-17T12:43:07.517Z,38.50
2023-03-17T12:45:34.108Z,39.30
2023-03-17T12:48:08.252Z,39.30
2023-03-17T12:50:54.282Z,38.40
2023-03-17T12:53:24.842Z,38.60
2023-03-17T12:55:52.623Z,38.60
2023-03-17T12:58:28.860Z,39.00
2023-03-17T13:01:00.435Z,39.20
2023-03-17T13:03:30.668Z,39.10
2023-03-17T13:06:01.437Z,37.80
2023-03-17T13:08:33.620Z,39.00
2023-03-17T13:11:19.937Z,39.50
2023-03-17T13:13:46.813Z,39.00
2023-03-17T13:16:34.570Z,37.80
2023-03-17T13:19:16.145Z,37.80
2023-03-17T13:21:50.776Z,38.60
2023-03-17T13:24:17.971Z,38.30
2023-03-17T13:26:59.988Z,38.20
2023-03-17T13:29:38.774Z,38.40
2023-03-17T13:32:24.814Z,37.50
2023-03-17T13:35:01.584Z,37.60
2023-03-17T13:37:43.454Z,37.20
2023-03-17T13:40:19.441Z,37.80
2023-03-17T13:43:04.675Z,37.20
2023-03-17T13:45:35.745Z,37.70
2023-03-17T13:48:24.315Z,38.00
2023-03-17T13:51:00.891Z,36.40
2023-03-17T13:53:29.130Z,36.80
2023-03-17T13:56:09.492Z,36.70
2023-03-17T13:58:49.042Z,36.30
2023-03-17T14:01:16.002Z,36.30
2023-03-17T14:03:47.617Z,38.80
2023-03-17T14:06:15.012Z,37.70
2023-03-17T14:08:47.426Z,36.90
2023-03-17T14:11:19.193Z,39.20
2023-03-17T14:14:04.619Z,37.10
2023-03-17T14:16:43.545Z,37.10
2023-03-17T14:19:19.840Z,38.80
2023-03-17T14:21:47.218Z,37.50
2023-03-17T14:24:24.257Z,37.60
2023-03-17T14:26:52.490Z,38.10
2023-03-17T14:29:21.387Z,38.00
2023-03-17T14:31:54.388Z,37.00
2023-03-17T14:34:22.107Z,37.20
2023-03-17T14:36:52.026Z,37.40
2023-03-17T14:39:23.861Z,37.60
2023-03-17T14:41:57.408Z,37.40
2023-03-17T14:44:24.357Z,37.80
2023-03-17T14:46:51.420Z,37.50
2023-03-17T14:49:20.132Z,38.00
2023-03-17T14:51:51.277Z,37.90
2023-03-17T14:54:28.774Z,38.50
2023-03-17T14:57:02.300Z,38.90
2023-03-17T14:59:28.957Z,37.80
2023-03-17T15:01:56.904Z,38.60
2023-03-17T15:04:25.655Z,38.50
2023-03-17T15:06:54.973Z,38.70
2023-03-17T15:09:27.843Z,38.50
2023-03-17T15:12:04.792Z,38.30
2023-03-17T15:14:37.474Z,38.40
2023-03-17T15:17:05.690Z,38.70
2023-03-17T15:19:52.515Z,39.70
2023-03-17T15:22:39.802Z,38.60
2023-03-17T15:25:23.233Z,38.50
2023-03-17T15:27:51.242Z,38.60
2023-03-17T15:30:18.591Z,38.80
2023-03-17T15:32:51.486Z,38.60
2023-03-17T15:35:18.415Z,38.50
2023-03-17T15:37:45.793Z,38.90
2023-03-17T15:40:13.864Z,39.20
2023-03-17T15:42:40.673Z,39.70
2023-03-17T15:45:07.978Z,39.10
2023-03-17T15:47:37.055Z,38.70
2023-03-17T15:50:13.574Z,38.80
2023-03-17T15:52:40.815Z,38.30
2023-03-17T15:55:14.888Z,39.50
2023-03-17T15:57:44.328Z,39.60
2023-03-17T16:00:17.693Z,40.50
2023-03-17T16:02:44.945Z,39.90
2023-03-17T16:05:34.460Z,40.40
2023-03-17T16:08:01.853Z,41.40
2023-03-17T16:10:32.441Z,41.30
2023-03-17T16:12:59.518Z,41.20
2023-03-17T16:15:27.630Z,41.30
2023-03-17T16:17:55.870Z,41.80
2023-03-17T16:20:28.876Z,42.60
2023-03-17T16:22:57.125Z,42.90
2023-03-17T16:25:29.277Z,42.20
2023-03-17T16:27:57.376Z,42.90
2023-03-17T16:30:27.930Z,43.20
2023-03-17T16:32:58.015Z,43.20
2023-03-17T16:35:25.638Z,43.20
2023-03-17T16:37:54.873Z,43.60
2023-03-17T16:40:21.685Z,43.60
2023-03-17T16:42:49.624Z,44.00
2023-03-17T16:45:22.108Z,44.30
2023-03-17T16:47:49.756Z,44.50
2023-03-17T16:50:18.925Z,44.60
2023-03-17T16:52:45.800Z,44.80
2023-03-17T16:55:13.022Z,44.60
2023-03-17T16:57:41.358Z,44.60
2023-03-17T17:00:09.368Z,45.30
2023-03-17T17:02:36.318Z,44.50
2023-03-17T17:05:06.088Z,45.00
2023-03-17T17:07:32.808Z,45.00
2023-03-17T17:09:59.422Z,45.40
2023-03-17T17:12:26.238Z,45.50
2023-03-17T17:14:52.924Z,45.90
2023-03-17T17:17:22.224Z,46.30
2023-03-17T17:19:49.189Z,46.80
2023-03-17T17:22:17.153Z,47.20
2023-03-17T17:24:43.837Z,47.80
2023-03-17T17:27:10.618Z,48.00
2023-03-17T17:29:37.605Z,48.30
2023-03-17T17:32:05.032Z,48.60
2023-03-17T17:34:31.635Z,49.30
2023-03-17T17:36:58.620Z,49.60
2023-03-17T17:39:25.309Z,50.10
2023-03-17T17:41:52.108Z,50.40
2023-03-17T17:44:19.337Z,50.80
2023-03-17T17:46:46.351Z,51.10
2023-03-17T17:49:12.968Z,51.40
2023-03-17T17:51:39.608Z,51.90
2023-03-17T17:54:06.287Z,52.20
2023-03-17T17:56:36.660Z,52.40
2023-03-17T17:59:03.561Z,52.90
2023-03-17T18:01:30.264Z,53.60
2023-03-17T18:04:00.088Z,53.90
2023-03-17T18:06:27.003Z,54.40
2023-03-17T18:08:55.123Z,54.80
2023-03-17T18:11:22.149Z,54.80
2023-03-17T18:13:49.005Z,56.10
2023-03-17T18:16:16.463Z,58.10
2023-03-17T18:18:45.806Z,58.10
2023-03-17T18:21:13.437Z,59.20
2023-03-17T18:23:46.750Z,58.50
2023-03-17T18:26:14.965Z,58.10
2023-03-17T18:28:42.308Z,58.60
2023-03-17T18:31:11.409Z,59.00
2023-03-17T18:33:39.342Z,59.00
2023-03-17T18:36:06.664Z,59.80
2023-03-17T18:38:33.886Z,60.40
2023-03-17T18:41:01.362Z,60.40
2023-03-17T18:43:28.237Z,61.00
2023-03-17T18:45:54.885Z,61.00
2023-03-17T18:48:21.678Z,62.50
2023-03-17T18:50:48.902Z,62.80
2023-03-17T18:53:15.678Z,62.50
2023-03-17T18:55:42.536Z,62.40
2023-03-17T18:58:09.133Z,62.40
2023-03-17T19:00:36.186Z,63.30
2023-03-17T19:03:02.851Z,65.10
2023-03-17T19:05:29.546Z,64.90
2023-03-17T19:07:56.187Z,64.80
2023-03-17T19:10:22.797Z,64.70
2023-03-17T19:12:50.615Z,64.00
2023-03-17T19:15:17.717Z,63.80
2023-03-17T19:17:44.400Z,63.90
2023-03-17T19:20:12.286Z,63.70
2023-03-17T19:22:40.185Z,64.90
2023-03-17T19:25:08.607Z,65.10
2023-03-17T19:27:35.538Z,64.90
2023-03-17T19:30:02.177Z,64.90
2023-03-17T19:32:28.821Z,65.20
2023-03-17T19:34:55.465Z,65.20
2023-03-17T19:37:22.566Z,65.40
2023-03-17T19:39:49.289Z,64.70
2023-03-17T19:42:16.402Z,64.70
2023-03-17T19:44:43.342Z,66.00
2023-03-17T19:47:10.370Z,66.90
2023-03-17T19:49:37.791Z,66.70
2023-03-17T19:52:05.436Z,66.40
2023-03-17T19:54:32.266Z,65.90
2023-03-17T19:56:58.939Z,66.80
2023-03-17T19:59:25.587Z,67.10
2023-03-17T20:01:52.393Z,67.20
2023-03-17T20:04:20.870Z,66.80
2023-03-17T20:06:47.759Z,67.70
2023-03-17T20:09:15.019Z,67.00
2023-03-17T20:11:41.732Z,67.60
2023-03-17T20:14:08.385Z,68.20
2023-03-17T20:16:36.676Z,67.80
2023-03-17T20:19:04.895Z,68.10
2023-03-17T20:21:31.633Z,68.20
2023-03-17T20:23:58.524Z,68.10
2023-03-17T20:26:25.563Z,67.80
2023-03-17T20:28:53.828Z,68.10
2023-03-17T20:31:20.735Z,68.10
2023-03-17T20:33:47.536Z,67.90
2023-03-17T20:36:14.461Z,67.80
2023-03-17T20:38:43.537Z,68.90
2023-03-17T20:41:14.740Z,68.30
2023-03-17T20:43:41.784Z,67.90
2023-03-17T20:46:10.736Z,68.90
2023-03-17T20:48:37.673Z,69.00
2023-03-17T20:51:06.335Z,68.90
2023-03-17T20:53:34.322Z,68.30
2023-03-17T20:56:00.982Z,68.40
2023-03-17T20:58:27.867Z,69.20
2023-03-17T21:00:54.686Z,68.80
2023-03-17T21:03:21.526Z,69.20
2023-03-17T21:05:48.315Z,69.40
2023-03-17T21:08:15.043Z,70.00
2023-03-17T21:10:41.761Z,70.10
2023-03-17T21:13:08.922Z,71.60
2023-03-17T21:15:37.027Z,71.50
2023-03-17T21:18:04.021Z,71.60
2023-03-17T21:20:31.409Z,72.20
2023-03-17T21:22:59.573Z,71.90
2023-03-17T21:25:27.971Z,71.90
2023-03-17T21:27:54.654Z,71.60
2023-03-17T21:30:21.518Z,73.00
2023-03-17T21:32:48.131Z,72.30
2023-03-17T21:35:14.829Z,72.10
2023-03-17T21:37:41.509Z,72.70
2023-03-17T21:40:08.457Z,72.80
2023-03-17T21:42:35.072Z,72.70
2023-03-17T21:45:01.776Z,73.10
2023-03-17T21:47:29.999Z,72.90
2023-03-17T21:49:57.874Z,73.40
2023-03-17T21:52:25.111Z,73.60
2023-03-17T21:54:51.786Z,73.80
2023-03-17T21:57:18.735Z,74.70
2023-03-17T21:59:48.016Z,74.70
2023-03-17T22:02:17.512Z,74.00
2023-03-17T22:04:44.764Z,73.90
2023-03-17T22:07:12.105Z,74.10
2023-03-17T22:09:39.322Z,74.60
2023-03-17T22:12:07.002Z,75.20
2023-03-17T22:14:35.730Z,74.70
2023-03-17T22:17:05.161Z,74.80
2023-03-17T22:19:32.928Z,74.90
2023-03-17T22:21:59.753Z,75.30
2023-03-17T22:24:26.763Z,75.40
2023-03-17T22:26:53.454Z,75.50
2023-03-17T22:29:20.243Z,75.60
2023-03-17T22:31:47.293Z,76.10
2023-03-17T22:34:14.077Z,76.40
2023-03-17T22:36:41.177Z,76.30
2023-03-17T22:39:10.885Z,76.20
2023-03-17T22:41:38.462Z,76.30
2023-03-17T22:44:06.610Z,76.60
2023-03-17T22:46:33.376Z,76.40
2023-03-17T22:48:59.993Z,76.60
2023-03-17T22:51:28.822Z,77.10
2023-03-17T22:53:55.668Z,76.80
2023-03-17T22:56:22.422Z,76.40
2023-03-17T22:58:49.306Z,76.90
2023-03-17T23:01:17.982Z,76.40
2023-03-17T23:03:46.076Z,77.50
2023-03-17T23:06:13.262Z,76.70
2023-03-17T23:08:40.819Z,76.90
2023-03-17T23:11:08.791Z,78.10
2023-03-17T23:13:35.520Z,77.70
2023-03-17T23:16:04.976Z,77.40
2023-03-17T23:18:31.836Z,77.10
2023-03-17T23:20:59.634Z,77.60
2023-03-17T23:23:27.330Z,77.80
2023-03-17T23:25:54.157Z,77.40
2023-03-17T23:28:21.101Z,78.50
2023-03-17T23:30:47.828Z,78.50
2023-03-17T23:33:15.391Z,77.90
2023-03-17T23:35:42.317Z,77.80
2023-03-17T23:38:09.525Z,78.10
2023-03-17T23:40:36.141Z,78.40
2023-03-17T23:43:05.743Z,78.20
2023-03-17T23:45:33.690Z,78.70
2023-03-17T23:48:00.956Z,79.00
2023-03-17T23:50:27.753Z,79.20
2023-03-17T23:52:54.372Z,78.80
2023-03-17T23:55:21.058Z,78.70
2023-03-17T23:57:48.017Z,78.90
